createdAt,value
2022-12-01T05:00:33.320Z,9.60
2022-12-01T05:11:38.111Z,9.40
2022-12-01T05:23:04.373Z,9.60
2022-12-01T05:33:37.865Z,7.80
2022-12-01T05:44:37.752Z,8.00
2022-12-01T05:55:37.616Z,8.40
2022-12-01T06:06:37.482Z,9.50
2022-12-01T06:17:40.442Z,8.50
2022-12-01T06:28:37.258Z,9.90
2022-12-01T06:39:37.118Z,10.70
2022-12-01T06:50:37.033Z,7.90
2022-12-01T07:01:37.014Z,9.30
2022-12-01T07:12:36.742Z,9.10
2022-12-01T07:23:36.718Z,7.10
2022-12-01T07:34:36.517Z,8.80
2022-12-01T07:45:36.394Z,9.00
2022-12-01T07:56:36.263Z,8.40
2022-12-01T08:07:36.170Z,6.90
2022-12-01T08:18:36.008Z,10.00
2022-12-01T08:29:35.886Z,6.90
2022-12-01T08:40:35.744Z,8.80
2022-12-01T08:51:35.620Z,7.30
2022-12-01T09:02:35.630Z,9.10
2022-12-01T09:13:35.370Z,7.10
2022-12-01T09:24:35.253Z,7.10
2022-12-01T09:35:35.162Z,7.60
2022-12-01T09:46:35.103Z,7.40
2022-12-01T09:57:34.867Z,6.90
2022-12-01T10:08:34.762Z,8.50
2022-12-01T10:19:34.621Z,7.60
2022-12-01T10:30:34.521Z,7.90
2022-12-01T10:41:34.397Z,7.80
2022-12-01T10:52:34.242Z,7.40
2022-12-01T11:03:34.318Z,8.70
2022-12-01T11:14:33.994Z,6.70
2022-12-01T11:25:33.876Z,8.30
2022-12-01T11:36:33.758Z,7.60
2022-12-01T11:47:33.633Z,7.60
2022-12-01T11:58:34.837Z,9.50
2022-12-01T12:09:33.402Z,8.40
2022-12-01T12:20:34.251Z,9.30
2022-12-01T12:31:33.124Z,7.90
2022-12-01T12:42:32.999Z,8.60
2022-12-01T12:53:32.887Z,8.00
2022-12-01T13:04:33.772Z,8.70
2022-12-01T13:15:32.726Z,7.60
2022-12-01T13:26:32.503Z,7.40
2022-12-01T13:37:33.383Z,9.00
2022-12-01T13:48:32.263Z,9.30
2022-12-01T13:59:32.136Z,9.70
2022-12-01T14:10:32.029Z,8.20
2022-12-01T14:21:35.169Z,7.30
2022-12-01T14:32:31.773Z,7.40
2022-12-01T14:43:31.634Z,8.00
2022-12-01T14:54:31.507Z,8.10
2022-12-01T15:05:31.412Z,7.60
2022-12-01T15:16:31.339Z,7.70
2022-12-01T15:27:31.141Z,6.30
2022-12-01T15:38:31.025Z,7.60
2022-12-01T15:49:30.896Z,8.10
2022-12-01T16:00:30.756Z,7.60
2022-12-01T16:11:30.635Z,9.50
2022-12-01T16:22:30.504Z,10.60
2022-12-01T16:33:30.384Z,8.40
2022-12-01T16:44:30.315Z,11.10
2022-12-01T16:55:30.294Z,10.70
2022-12-01T17:06:30.015Z,10.80
2022-12-01T17:17:29.887Z,11.80
2022-12-01T17:28:29.761Z,12.00
2022-12-01T17:39:29.645Z,10.60
2022-12-01T17:50:29.509Z,11.70
2022-12-01T18:01:30.562Z,13.30
2022-12-01T18:12:29.266Z,13.10
2022-12-01T18:23:29.133Z,12.30
2022-12-01T18:34:29.003Z,12.50
2022-12-01T18:45:28.877Z,11.70
2022-12-01T18:56:28.759Z,12.00
2022-12-01T19:07:30.158Z,14.90
2022-12-01T19:18:28.538Z,14.20
2022-12-01T19:29:28.440Z,10.80
2022-12-01T19:40:28.266Z,11.30
2022-12-01T19:51:28.137Z,14.30
2022-12-01T20:02:29.462Z,13.70
2022-12-01T20:13:27.895Z,17.60
2022-12-01T20:24:27.789Z,13.10
2022-12-01T20:35:27.661Z,13.60
2022-12-01T20:46:27.562Z,14.70
2022-12-01T20:57:27.396Z,14.60
2022-12-01T21:08:27.276Z,14.90
2022-12-01T21:19:27.152Z,13.40
2022-12-01T21:30:27.141Z,12.80
2022-12-01T21:41:26.928Z,14.70
2022-12-01T21:52:26.792Z,16.20
